Main page
METAR-TAF:

METAR-TAF

Airports :

Gran Canaria Airport

Gran Canaria, Spain

latitude: 27-56N, longitude: 015-23W, elevation: 23 m

Current weather observation

The report was made 24 minutes ago, at 07:30 UTC
Wind 18 kt from the North
Temperature 25°C
Humidity 65%
Pressure 1013 hPa
Visibility 10 km or more
no clouds below 1500 m and no cumulonimbus

METAR: GCLP 180730Z 36018KT CAVOK 25/18 Q1013 NOSIG

Time: 08:54 (07:54 UTC)

Forecast

The report was made 5 hours and 54 minutes ago, at 02:00 UTC
Forecast valid from 18 at 03 UTC to 19 at 03 UTC
Wind 22 kt from the North
Visibility 10 km or more
no clouds below 1500 m and no cumulonimbus
Probability 40% :
Temporary
from 18 at 09 UTC to 18 at 21 UTC
Wind 24 kt from the North with gusts up to 34 kt

TAF: GCLP 180200Z 1803/1903 01022KT CAVOK TX30/1814Z TN24/1805Z PROB40 TEMPO 1809/1821 01024G34KT

Weather observations and forecasts of more than 4000 airports (METAR and TAF reports).

The available stations are represented by yellow and red dots on the map.

Hover mouse over dot to see the name of the station.

Then click to see weather observations and forecasts.

To change the map : click on the green buttons with a black cross to zoom in, on the green button with a dash to zoom out, or on the green arrows for adjacent maps.


METAR-TAF: